sensor_id;sensor_type;location;lat;lon;timestamp;temperature;humidity
26907;DHT22;14472;56.880;16.658;2022-10-30T00:00:51;13.00;1.00
26907;DHT22;14472;56.880;16.658;2022-10-30T00:03:17;13.10;1.00
26907;DHT22;14472;56.880;16.658;2022-10-30T00:05:47;13.00;1.00
26907;DHT22;14472;56.880;16.658;2022-10-30T00:08:16;13.00;1.00
26907;DHT22;14472;56.880;16.658;2022-10-30T00:10:44;13.00;1.00
26907;DHT22;14472;56.880;16.658;2022-10-30T00:13:11;13.00;1.00
26907;DHT22;14472;56.880;16.658;2022-10-30T00:15:37;13.00;1.00
26907;DHT22;14472;56.880;16.658;2022-10-30T00:18:03;12.90;1.00
26907;DHT22;14472;56.880;16.658;2022-10-30T00:20:29;12.90;1.00
26907;DHT22;14472;56.880;16.658;2022-10-30T00:22:55;13.00;1.00
26907;DHT22;14472;56.880;16.658;2022-10-30T00:25:21;13.00;1.00
26907;DHT22;14472;56.880;16.658;2022-10-30T00:27:46;13.00;1.00
26907;DHT22;14472;56.880;16.658;2022-10-30T00:30:12;13.00;1.00
26907;DHT22;14472;56.880;16.658;2022-10-30T00:32:40;13.00;1.00
26907;DHT22;14472;56.880;16.658;2022-10-30T00:35:08;13.00;1.00
26907;DHT22;14472;56.880;16.658;2022-10-30T00:37:34;13.00;1.00
26907;DHT22;14472;56.880;16.658;2022-10-30T00:39:59;12.90;1.00
26907;DHT22;14472;56.880;16.658;2022-10-30T00:42:29;12.90;1.00
26907;DHT22;14472;56.880;16.658;2022-10-30T00:44:58;12.90;1.00
26907;DHT22;14472;56.880;16.658;2022-10-30T00:47:33;12.90;1.00
26907;DHT22;14472;56.880;16.658;2022-10-30T00:52:53;12.90;1.00
26907;DHT22;14472;56.880;16.658;2022-10-30T00:55:23;12.90;1.00
26907;DHT22;14472;56.880;16.658;2022-10-30T00:57:51;12.90;1.00
26907;DHT22;14472;56.880;16.658;2022-10-30T01:00:19;12.90;1.00
26907;DHT22;14472;56.880;16.658;2022-10-30T01:02:46;12.80;1.00
26907;DHT22;14472;56.880;16.658;2022-10-30T01:05:15;12.80;1.00
26907;DHT22;14472;56.880;16.658;2022-10-30T01:07:42;12.80;1.00
26907;DHT22;14472;56.880;16.658;2022-10-30T01:10:08;12.80;1.00
26907;DHT22;14472;56.880;16.658;2022-10-30T01:12:34;12.80;1.00
26907;DHT22;14472;56.880;16.658;2022-10-30T01:15:00;12.80;1.00
26907;DHT22;14472;56.880;16.658;2022-10-30T01:20:33;12.80;1.00
26907;DHT22;14472;56.880;16.658;2022-10-30T01:26:10;12.80;1.00
26907;DHT22;14472;56.880;16.658;2022-10-30T01:36:56;12.60;1.00
26907;DHT22;14472;56.880;16.658;2022-10-30T01:39:31;12.60;1.00
26907;DHT22;14472;56.880;16.658;2022-10-30T01:41:57;12.50;1.00
26907;DHT22;14472;56.880;16.658;2022-10-30T01:44:29;12.50;1.00
26907;DHT22;14472;56.880;16.658;2022-10-30T01:50:07;12.50;1.00
26907;DHT22;14472;56.880;16.658;2022-10-30T01:55:40;12.50;1.00
26907;DHT22;14472;56.880;16.658;2022-10-30T01:58:21;12.50;1.00
26907;DHT22;14472;56.880;16.658;2022-10-30T02:00:55;12.40;1.00
26907;DHT22;14472;56.880;16.658;2022-10-30T02:03:22;12.40;1.00
26907;DHT22;14472;56.880;16.658;2022-10-30T02:05:50;12.40;1.00
26907;DHT22;14472;56.880;16.658;2022-10-30T02:08:16;12.40;1.00
26907;DHT22;14472;56.880;16.658;2022-10-30T02:10:44;12.40;1.00
26907;DHT22;14472;56.880;16.658;2022-10-30T02:13:11;12.30;1.00
26907;DHT22;14472;56.880;16.658;2022-10-30T02:15:37;12.30;1.00
26907;DHT22;14472;56.880;16.658;2022-10-30T02:18:03;12.30;1.00
26907;DHT22;14472;56.880;16.658;2022-10-30T02:20:29;12.30;1.00
26907;DHT22;14472;56.880;16.658;2022-10-30T02:22:55;12.30;1.00
26907;DHT22;14472;56.880;16.658;2022-10-30T02:25:21;12.30;1.00
26907;DHT22;14472;56.880;16.658;2022-10-30T02:27:47;12.30;1.00
26907;DHT22;14472;56.880;16.658;2022-10-30T02:30:13;12.30;1.00
26907;DHT22;14472;56.880;16.658;2022-10-30T02:32:39;12.30;1.00
26907;DHT22;14472;56.880;16.658;2022-10-30T02:35:05;12.20;1.00
26907;DHT22;14472;56.880;16.658;2022-10-30T02:37:31;12.20;1.00
26907;DHT22;14472;56.880;16.658;2022-10-30T02:39:57;12.20;1.00
26907;DHT22;14472;56.880;16.658;2022-10-30T02:42:23;12.20;1.00
26907;DHT22;14472;56.880;16.658;2022-10-30T02:44:49;12.20;1.00
26907;DHT22;14472;56.880;16.658;2022-10-30T02:47:14;12.20;1.00
26907;DHT22;14472;56.880;16.658;2022-10-30T02:49:40;12.20;1.00
26907;DHT22;14472;56.880;16.658;2022-10-30T02:52:07;12.10;1.00
26907;DHT22;14472;56.880;16.658;2022-10-30T02:54:34;12.10;1.00
26907;DHT22;14472;56.880;16.658;2022-10-30T02:56:59;12.10;1.00
26907;DHT22;14472;56.880;16.658;2022-10-30T02:59:25;12.10;1.00
26907;DHT22;14472;56.880;16.658;2022-10-30T03:01:50;12.10;1.00
26907;DHT22;14472;56.880;16.658;2022-10-30T03:04:16;12.10;1.00
26907;DHT22;14472;56.880;16.658;2022-10-30T03:06:42;12.10;1.00
26907;DHT22;14472;56.880;16.658;2022-10-30T03:09:07;12.00;1.00
26907;DHT22;14472;56.880;16.658;2022-10-30T03:11:34;12.00;1.00
26907;DHT22;14472;56.880;16.658;2022-10-30T03:14:00;11.90;1.00
26907;DHT22;14472;56.880;16.658;2022-10-30T03:16:26;11.90;1.00
26907;DHT22;14472;56.880;16.658;2022-10-30T03:18:57;11.90;1.00
26907;DHT22;14472;56.880;16.658;2022-10-30T03:21:24;11.90;1.00
26907;DHT22;14472;56.880;16.658;2022-10-30T03:23:51;11.90;1.00
26907;DHT22;14472;56.880;16.658;2022-10-30T03:26:18;11.80;1.00
26907;DHT22;14472;56.880;16.658;2022-10-30T03:28:44;11.80;1.00
26907;DHT22;14472;56.880;16.658;2022-10-30T03:31:11;11.80;1.00
26907;DHT22;14472;56.880;16.658;2022-10-30T03:33:38;11.80;1.00
26907;DHT22;14472;56.880;16.658;2022-10-30T03:36:05;11.80;1.00
26907;DHT22;14472;56.880;16.658;2022-10-30T03:38:32;11.80;1.00
26907;DHT22;14472;56.880;16.658;2022-10-30T03:40:58;11.80;1.00
26907;DHT22;14472;56.880;16.658;2022-10-30T03:43:24;11.70;1.00
26907;DHT22;14472;56.880;16.658;2022-10-30T03:45:51;11.70;1.00
26907;DHT22;14472;56.880;16.658;2022-10-30T03:48:19;11.70;1.00
26907;DHT22;14472;56.880;16.658;2022-10-30T03:50:45;11.70;1.00
26907;DHT22;14472;56.880;16.658;2022-10-30T03:53:12;11.70;1.00
26907;DHT22;14472;56.880;16.658;2022-10-30T03:55:38;11.70;1.00
26907;DHT22;14472;56.880;16.658;2022-10-30T03:58:04;11.70;1.00
26907;DHT22;14472;56.880;16.658;2022-10-30T04:00:31;11.60;1.00
26907;DHT22;14472;56.880;16.658;2022-10-30T04:02:57;11.60;1.00
26907;DHT22;14472;56.880;16.658;2022-10-30T04:05:23;11.50;1.00
26907;DHT22;14472;56.880;16.658;2022-10-30T04:07:55;11.60;1.00
26907;DHT22;14472;56.880;16.658;2022-10-30T04:10:21;11.50;1.00
26907;DHT22;14472;56.880;16.658;2022-10-30T04:12:46;11.50;1.00
26907;DHT22;14472;56.880;16.658;2022-10-30T04:15:12;11.60;1.00
26907;DHT22;14472;56.880;16.658;2022-10-30T04:17:38;11.50;1.00
26907;DHT22;14472;56.880;16.658;2022-10-30T04:20:04;11.50;1.00
26907;DHT22;14472;56.880;16.658;2022-10-30T04:22:30;11.50;1.00
26907;DHT22;14472;56.880;16.658;2022-10-30T04:24:55;11.40;1.00
26907;DHT22;14472;56.880;16.658;2022-10-30T04:27:21;11.40;1.00
26907;DHT22;14472;56.880;16.658;2022-10-30T04:29:47;11.40;1.00
26907;DHT22;14472;56.880;16.658;2022-10-30T04:32:13;11.40;1.00
26907;DHT22;14472;56.880;16.658;2022-10-30T04:34:39;11.40;1.00
26907;DHT22;14472;56.880;16.658;2022-10-30T04:37:06;11.40;1.00
26907;DHT22;14472;56.880;16.658;2022-10-30T04:39:32;11.40;1.00
26907;DHT22;14472;56.880;16.658;2022-10-30T04:41:57;11.40;1.00
26907;DHT22;14472;56.880;16.658;2022-10-30T04:44:23;11.50;1.00
26907;DHT22;14472;56.880;16.658;2022-10-30T04:46:49;11.50;1.00
26907;DHT22;14472;56.880;16.658;2022-10-30T04:49:14;11.50;1.00
26907;DHT22;14472;56.880;16.658;2022-10-30T04:51:40;11.50;1.00
26907;DHT22;14472;56.880;16.658;2022-10-30T04:54:06;11.50;1.00
26907;DHT22;14472;56.880;16.658;2022-10-30T04:56:31;11.50;1.00
26907;DHT22;14472;56.880;16.658;2022-10-30T04:58:58;11.50;1.00
26907;DHT22;14472;56.880;16.658;2022-10-30T05:01:23;11.40;1.00
26907;DHT22;14472;56.880;16.658;2022-10-30T05:03:49;11.50;1.00
26907;DHT22;14472;56.880;16.658;2022-10-30T05:06:23;11.40;1.00
26907;DHT22;14472;56.880;16.658;2022-10-30T05:08:49;11.50;1.00
26907;DHT22;14472;56.880;16.658;2022-10-30T05:11:16;11.50;1.00
26907;DHT22;14472;56.880;16.658;2022-10-30T05:13:42;11.40;1.00
26907;DHT22;14472;56.880;16.658;2022-10-30T05:16:07;11.50;1.00
26907;DHT22;14472;56.880;16.658;2022-10-30T05:18:33;11.40;1.00
26907;DHT22;14472;56.880;16.658;2022-10-30T05:20:59;11.40;1.00
26907;DHT22;14472;56.880;16.658;2022-10-30T05:23:24;11.40;1.00
26907;DHT22;14472;56.880;16.658;2022-10-30T05:25:50;11.40;1.00
26907;DHT22;14472;56.880;16.658;2022-10-30T05:28:16;11.40;1.00
26907;DHT22;14472;56.880;16.658;2022-10-30T05:30:42;11.40;1.00
26907;DHT22;14472;56.880;16.658;2022-10-30T05:33:10;11.40;1.00
26907;DHT22;14472;56.880;16.658;2022-10-30T05:35:36;11.40;1.00
26907;DHT22;14472;56.880;16.658;2022-10-30T05:38:04;11.40;1.00
26907;DHT22;14472;56.880;16.658;2022-10-30T05:40:31;11.40;1.00
26907;DHT22;14472;56.880;16.658;2022-10-30T05:42:57;11.40;1.00
26907;DHT22;14472;56.880;16.658;2022-10-30T05:45:23;11.40;1.00
26907;DHT22;14472;56.880;16.658;2022-10-30T05:47:56;11.30;1.40
26907;DHT22;14472;56.880;16.658;2022-10-30T05:50:23;11.30;2.00
26907;DHT22;14472;56.880;16.658;2022-10-30T05:52:48;11.40;2.10
26907;DHT22;14472;56.880;16.658;2022-10-30T05:55:14;11.40;2.00
26907;DHT22;14472;56.880;16.658;2022-10-30T05:57:40;11.40;2.00
26907;DHT22;14472;56.880;16.658;2022-10-30T06:00:06;11.40;1.90
26907;DHT22;14472;56.880;16.658;2022-10-30T06:02:32;11.40;1.70
26907;DHT22;14472;56.880;16.658;2022-10-30T06:04:57;11.40;1.30
26907;DHT22;14472;56.880;16.658;2022-10-30T06:07:23;11.40;1.00
26907;DHT22;14472;56.880;16.658;2022-10-30T06:09:49;11.40;1.00
26907;DHT22;14472;56.880;16.658;2022-10-30T06:12:14;11.50;1.00
26907;DHT22;14472;56.880;16.658;2022-10-30T06:14:40;11.50;1.00
26907;DHT22;14472;56.880;16.658;2022-10-30T06:17:06;11.50;1.00
26907;DHT22;14472;56.880;16.658;2022-10-30T06:19:31;11.50;1.00
26907;DHT22;14472;56.880;16.658;2022-10-30T06:21:57;11.50;1.00
26907;DHT22;14472;56.880;16.658;2022-10-30T06:24:23;11.50;1.00
26907;DHT22;14472;56.880;16.658;2022-10-30T06:26:48;11.50;1.00
26907;DHT22;14472;56.880;16.658;2022-10-30T06:29:16;11.50;1.00
26907;DHT22;14472;56.880;16.658;2022-10-30T06:31:42;11.50;1.00
26907;DHT22;14472;56.880;16.658;2022-10-30T06:34:07;11.50;1.00
26907;DHT22;14472;56.880;16.658;2022-10-30T06:36:33;11.50;1.00
26907;DHT22;14472;56.880;16.658;2022-10-30T06:38:59;11.40;1.20
26907;DHT22;14472;56.880;16.658;2022-10-30T06:41:24;11.40;1.40
26907;DHT22;14472;56.880;16.658;2022-10-30T06:43:50;11.50;1.40
26907;DHT22;14472;56.880;16.658;2022-10-30T06:46:16;11.40;1.30
26907;DHT22;14472;56.880;16.658;2022-10-30T06:48:41;11.50;1.10
26907;DHT22;14472;56.880;16.658;2022-10-30T06:51:07;11.50;1.00
26907;DHT22;14472;56.880;16.658;2022-10-30T06:53:33;11.50;1.00
26907;DHT22;14472;56.880;16.658;2022-10-30T06:56:03;11.50;1.00
26907;DHT22;14472;56.880;16.658;2022-10-30T06:58:29;11.60;1.10
26907;DHT22;14472;56.880;16.658;2022-10-30T07:00:58;11.50;1.00
26907;DHT22;14472;56.880;16.658;2022-10-30T07:03:23;11.50;1.00
26907;DHT22;14472;56.880;16.658;2022-10-30T07:05:50;11.60;1.70
26907;DHT22;14472;56.880;16.658;2022-10-30T07:08:16;11.60;1.60
26907;DHT22;14472;56.880;16.658;2022-10-30T07:10:42;11.70;1.60
26907;DHT22;14472;56.880;16.658;2022-10-30T07:13:08;11.70;1.70
26907;DHT22;14472;56.880;16.658;2022-10-30T07:15:34;11.70;1.30
26907;DHT22;14472;56.880;16.658;2022-10-30T07:18:01;11.80;1.50
26907;DHT22;14472;56.880;16.658;2022-10-30T07:20:32;11.80;1.30
26907;DHT22;14472;56.880;16.658;2022-10-30T07:22:58;11.90;1.30
26907;DHT22;14472;56.880;16.658;2022-10-30T07:25:24;11.90;1.30
26907;DHT22;14472;56.880;16.658;2022-10-30T07:27:51;12.00;1.20
26907;DHT22;14472;56.880;16.658;2022-10-30T07:30:22;12.00;1.00
26907;DHT22;14472;56.880;16.658;2022-10-30T07:33:03;12.00;1.00
26907;DHT22;14472;56.880;16.658;2022-10-30T07:35:30;12.00;1.00
26907;DHT22;14472;56.880;16.658;2022-10-30T07:38:10;12.10;1.00
26907;DHT22;14472;56.880;16.658;2022-10-30T07:40:36;12.10;1.00
26907;DHT22;14472;56.880;16.658;2022-10-30T07:43:02;12.20;1.00
26907;DHT22;14472;56.880;16.658;2022-10-30T07:45:29;12.20;1.00
26907;DHT22;14472;56.880;16.658;2022-10-30T07:47:55;12.30;1.00
26907;DHT22;14472;56.880;16.658;2022-10-30T07:50:21;12.40;1.00
26907;DHT22;14472;56.880;16.658;2022-10-30T07:52:47;12.50;1.00
26907;DHT22;14472;56.880;16.658;2022-10-30T07:55:13;12.50;1.00
26907;DHT22;14472;56.880;16.658;2022-10-30T07:57:40;12.60;1.00
26907;DHT22;14472;56.880;16.658;2022-10-30T08:00:11;12.70;1.00
26907;DHT22;14472;56.880;16.658;2022-10-30T08:02:38;12.70;1.00
26907;DHT22;14472;56.880;16.658;2022-10-30T08:05:04;12.70;1.00
26907;DHT22;14472;56.880;16.658;2022-10-30T08:07:35;12.70;1.00
26907;DHT22;14472;56.880;16.658;2022-10-30T08:10:01;12.80;1.00
26907;DHT22;14472;56.880;16.658;2022-10-30T08:12:27;12.90;1.00
26907;DHT22;14472;56.880;16.658;2022-10-30T08:14:53;12.90;1.00
26907;DHT22;14472;56.880;16.658;2022-10-30T08:17:19;13.00;1.00
26907;DHT22;14472;56.880;16.658;2022-10-30T08:19:46;13.10;1.00
26907;DHT22;14472;56.880;16.658;2022-10-30T08:22:12;13.10;1.00
26907;DHT22;14472;56.880;16.658;2022-10-30T08:24:38;13.10;1.00
26907;DHT22;14472;56.880;16.658;2022-10-30T08:27:04;13.10;1.00
26907;DHT22;14472;56.880;16.658;2022-10-30T08:29:30;13.10;1.00
26907;DHT22;14472;56.880;16.658;2022-10-30T08:31:56;13.10;1.00
26907;DHT22;14472;56.880;16.658;2022-10-30T08:34:22;13.10;1.00
26907;DHT22;14472;56.880;16.658;2022-10-30T08:36:49;13.10;1.00
26907;DHT22;14472;56.880;16.658;2022-10-30T08:39:19;13.10;1.00
26907;DHT22;14472;56.880;16.658;2022-10-30T08:41:45;13.10;1.00
26907;DHT22;14472;56.880;16.658;2022-10-30T08:44:11;13.10;1.00
26907;DHT22;14472;56.880;16.658;2022-10-30T08:46:37;13.10;1.00
26907;DHT22;14472;56.880;16.658;2022-10-30T08:49:03;13.20;1.00
26907;DHT22;14472;56.880;16.658;2022-10-30T08:51:33;13.20;1.00
26907;DHT22;14472;56.880;16.658;2022-10-30T08:53:59;13.30;1.00
26907;DHT22;14472;56.880;16.658;2022-10-30T08:56:26;13.40;1.00
26907;DHT22;14472;56.880;16.658;2022-10-30T08:58:52;13.40;1.00
26907;DHT22;14472;56.880;16.658;2022-10-30T09:01:17;13.50;1.00
26907;DHT22;14472;56.880;16.658;2022-10-30T09:03:44;13.70;1.00
26907;DHT22;14472;56.880;16.658;2022-10-30T09:06:10;13.60;1.00
26907;DHT22;14472;56.880;16.658;2022-10-30T09:08:36;13.70;1.00
26907;DHT22;14472;56.880;16.658;2022-10-30T09:11:02;13.70;1.00
26907;DHT22;14472;56.880;16.658;2022-10-30T09:13:28;13.70;1.00
26907;DHT22;14472;56.880;16.658;2022-10-30T09:15:58;13.80;1.00
26907;DHT22;14472;56.880;16.658;2022-10-30T09:18:25;13.90;1.00
26907;DHT22;14472;56.880;16.658;2022-10-30T09:20:51;14.00;1.00
26907;DHT22;14472;56.880;16.658;2022-10-30T09:23:16;14.00;1.00
26907;DHT22;14472;56.880;16.658;2022-10-30T09:25:42;14.10;1.00
26907;DHT22;14472;56.880;16.658;2022-10-30T09:28:08;14.20;1.00
26907;DHT22;14472;56.880;16.658;2022-10-30T09:30:33;14.20;1.00
26907;DHT22;14472;56.880;16.658;2022-10-30T09:33:00;14.30;1.00
26907;DHT22;14472;56.880;16.658;2022-10-30T09:35:29;14.30;1.00
26907;DHT22;14472;56.880;16.658;2022-10-30T09:37:56;14.40;1.00
26907;DHT22;14472;56.880;16.658;2022-10-30T09:54:39;14.60;1.00
26907;DHT22;14472;56.880;16.658;2022-10-30T09:57:23;14.60;1.00
26907;DHT22;14472;56.880;16.658;2022-10-30T10:02:34;14.70;1.00
26907;DHT22;14472;56.880;16.658;2022-10-30T10:07:53;14.80;1.00
26907;DHT22;14472;56.880;16.658;2022-10-30T10:10:40;14.80;1.00
26907;DHT22;14472;56.880;16.658;2022-10-30T10:13:19;14.80;1.00
26907;DHT22;14472;56.880;16.658;2022-10-30T10:18:45;14.90;1.00
26907;DHT22;14472;56.880;16.658;2022-10-30T10:21:18;14.80;1.00
26907;DHT22;14472;56.880;16.658;2022-10-30T10:23:50;14.70;1.00
26907;DHT22;14472;56.880;16.658;2022-10-30T10:29:30;14.80;1.00
26907;DHT22;14472;56.880;16.658;2022-10-30T10:37:38;14.90;1.00
26907;DHT22;14472;56.880;16.658;2022-10-30T10:48:46;15.10;1.00
26907;DHT22;14472;56.880;16.658;2022-10-30T10:51:21;15.10;1.00
26907;DHT22;14472;56.880;16.658;2022-10-30T10:56:50;15.10;1.00
26907;DHT22;14472;56.880;16.658;2022-10-30T10:59:18;15.20;1.00
26907;DHT22;14472;56.880;16.658;2022-10-30T11:01:57;15.20;1.00
26907;DHT22;14472;56.880;16.658;2022-10-30T11:04:38;15.20;1.00
26907;DHT22;14472;56.880;16.658;2022-10-30T11:07:31;15.20;1.00
26907;DHT22;14472;56.880;16.658;2022-10-30T11:09:57;15.20;1.00
26907;DHT22;14472;56.880;16.658;2022-10-30T11:12:44;15.20;1.00
26907;DHT22;14472;56.880;16.658;2022-10-30T11:18:12;15.30;1.00
26907;DHT22;14472;56.880;16.658;2022-10-30T11:23:41;15.30;1.00
26907;DHT22;14472;56.880;16.658;2022-10-30T11:26:29;15.30;1.00
26907;DHT22;14472;56.880;16.658;2022-10-30T11:31:35;15.50;1.00
26907;DHT22;14472;56.880;16.658;2022-10-30T11:39:31;15.30;1.00
26907;DHT22;14472;56.880;16.658;2022-10-30T11:42:11;15.40;1.00
26907;DHT22;14472;56.880;16.658;2022-10-30T11:44:42;15.40;1.00
26907;DHT22;14472;56.880;16.658;2022-10-30T11:47:10;15.50;1.00
26907;DHT22;14472;56.880;16.658;2022-10-30T11:49:47;15.50;1.00
26907;DHT22;14472;56.880;16.658;2022-10-30T11:52:17;15.50;1.00
26907;DHT22;14472;56.880;16.658;2022-10-30T11:54:47;15.50;1.00
26907;DHT22;14472;56.880;16.658;2022-10-30T11:57:34;15.50;1.00
26907;DHT22;14472;56.880;16.658;2022-10-30T12:00:13;15.50;1.00
26907;DHT22;14472;56.880;16.658;2022-10-30T12:02:45;15.60;1.00
26907;DHT22;14472;56.880;16.658;2022-10-30T12:05:40;15.70;1.00
26907;DHT22;14472;56.880;16.658;2022-10-30T12:10:42;15.70;1.00
26907;DHT22;14472;56.880;16.658;2022-10-30T12:13:16;15.70;1.00
26907;DHT22;14472;56.880;16.658;2022-10-30T12:15:44;15.70;1.00
26907;DHT22;14472;56.880;16.658;2022-10-30T12:18:24;15.70;1.00
26907;DHT22;14472;56.880;16.658;2022-10-30T12:20:53;15.70;1.00
26907;DHT22;14472;56.880;16.658;2022-10-30T12:23:21;15.70;1.00
26907;DHT22;14472;56.880;16.658;2022-10-30T12:25:52;15.60;1.00
26907;DHT22;14472;56.880;16.658;2022-10-30T12:28:24;15.60;1.00
26907;DHT22;14472;56.880;16.658;2022-10-30T12:31:19;15.60;1.00
26907;DHT22;14472;56.880;16.658;2022-10-30T12:36:46;15.50;1.00
26907;DHT22;14472;56.880;16.658;2022-10-30T12:39:18;15.50;1.00
26907;DHT22;14472;56.880;16.658;2022-10-30T12:44:36;15.40;1.00
26907;DHT22;14472;56.880;16.658;2022-10-30T12:47:10;15.40;1.00
26907;DHT22;14472;56.880;16.658;2022-10-30T12:49:45;15.30;1.00
26907;DHT22;14472;56.880;16.658;2022-10-30T12:52:39;15.30;1.00
26907;DHT22;14472;56.880;16.658;2022-10-30T12:57:43;15.20;1.00
26907;DHT22;14472;56.880;16.658;2022-10-30T13:00:13;15.10;1.00
26907;DHT22;14472;56.880;16.658;2022-10-30T13:05:42;15.10;1.00
26907;DHT22;14472;56.880;16.658;2022-10-30T13:08:33;15.00;1.00
26907;DHT22;14472;56.880;16.658;2022-10-30T13:13:36;14.80;1.00
26907;DHT22;14472;56.880;16.658;2022-10-30T13:16:07;14.80;1.00
26907;DHT22;14472;56.880;16.658;2022-10-30T13:18:36;14.80;1.00
26907;DHT22;14472;56.880;16.658;2022-10-30T13:21:12;14.90;1.00
26907;DHT22;14472;56.880;16.658;2022-10-30T13:24:05;14.90;1.00
26907;DHT22;14472;56.880;16.658;2022-10-30T13:32:33;14.80;1.00
26907;DHT22;14472;56.880;16.658;2022-10-30T13:43:19;14.80;1.00
26907;DHT22;14472;56.880;16.658;2022-10-30T13:52:13;14.70;1.00
26907;DHT22;14472;56.880;16.658;2022-10-30T13:56:46;14.70;1.00
26907;DHT22;14472;56.880;16.658;2022-10-30T14:04:39;14.70;1.00
26907;DHT22;14472;56.880;16.658;2022-10-30T14:10:08;14.70;1.00
26907;DHT22;14472;56.880;16.658;2022-10-30T14:13:06;14.60;1.00
26907;DHT22;14472;56.880;16.658;2022-10-30T14:20:44;14.60;1.00
26907;DHT22;14472;56.880;16.658;2022-10-30T14:23:40;14.50;1.00
26907;DHT22;14472;56.880;16.658;2022-10-30T14:28:40;14.40;1.00
26907;DHT22;14472;56.880;16.658;2022-10-30T14:31:16;14.30;1.00
26907;DHT22;14472;56.880;16.658;2022-10-30T14:33:48;14.40;1.00
26907;DHT22;14472;56.880;16.658;2022-10-30T14:44:16;14.20;1.00
26907;DHT22;14472;56.880;16.658;2022-10-30T14:49:41;14.20;1.00
26907;DHT22;14472;56.880;16.658;2022-10-30T14:52:22;14.20;1.00
26907;DHT22;14472;56.880;16.658;2022-10-30T14:55:04;14.20;1.00
26907;DHT22;14472;56.880;16.658;2022-10-30T14:57:51;14.10;1.00
26907;DHT22;14472;56.880;16.658;2022-10-30T15:02:57;14.00;1.00
26907;DHT22;14472;56.880;16.658;2022-10-30T15:08:41;13.90;1.00
26907;DHT22;14472;56.880;16.658;2022-10-30T15:13:53;13.90;1.00
26907;DHT22;14472;56.880;16.658;2022-10-30T15:16:22;13.90;1.00
26907;DHT22;14472;56.880;16.658;2022-10-30T15:18:58;13.80;1.00
26907;DHT22;14472;56.880;16.658;2022-10-30T15:21:27;13.80;1.00
26907;DHT22;14472;56.880;16.658;2022-10-30T15:23:57;13.70;1.00
26907;DHT22;14472;56.880;16.658;2022-10-30T15:26:34;13.70;1.00
26907;DHT22;14472;56.880;16.658;2022-10-30T15:29:01;13.60;1.00
26907;DHT22;14472;56.880;16.658;2022-10-30T15:31:28;13.60;1.00
26907;DHT22;14472;56.880;16.658;2022-10-30T15:33:54;13.60;1.00
26907;DHT22;14472;56.880;16.658;2022-10-30T15:36:28;13.60;1.00
26907;DHT22;14472;56.880;16.658;2022-10-30T15:39:16;13.50;1.00
26907;DHT22;14472;56.880;16.658;2022-10-30T15:41:54;13.50;1.00
26907;DHT22;14472;56.880;16.658;2022-10-30T15:46:53;13.40;1.00
26907;DHT22;14472;56.880;16.658;2022-10-30T15:49:30;13.40;1.00
26907;DHT22;14472;56.880;16.658;2022-10-30T15:51:58;13.30;1.00
26907;DHT22;14472;56.880;16.658;2022-10-30T15:54:26;13.30;1.00
26907;DHT22;14472;56.880;16.658;2022-10-30T15:56:56;13.20;1.00
26907;DHT22;14472;56.880;16.658;2022-10-30T15:59:27;13.20;1.00
26907;DHT22;14472;56.880;16.658;2022-10-30T16:01:55;13.20;1.00
26907;DHT22;14472;56.880;16.658;2022-10-30T16:06:53;13.10;1.00
26907;DHT22;14472;56.880;16.658;2022-10-30T16:09:20;13.00;1.00
26907;DHT22;14472;56.880;16.658;2022-10-30T16:11:47;13.00;1.00
26907;DHT22;14472;56.880;16.658;2022-10-30T16:14:17;13.00;1.00
26907;DHT22;14472;56.880;16.658;2022-10-30T16:16:46;12.90;1.00
26907;DHT22;14472;56.880;16.658;2022-10-30T16:19:25;12.90;1.00
26907;DHT22;14472;56.880;16.658;2022-10-30T16:21:52;12.90;1.00
26907;DHT22;14472;56.880;16.658;2022-10-30T16:24:30;12.80;1.00
26907;DHT22;14472;56.880;16.658;2022-10-30T16:27:16;12.80;1.00
26907;DHT22;14472;56.880;16.658;2022-10-30T16:29:44;12.70;1.00
26907;DHT22;14472;56.880;16.658;2022-10-30T16:32:14;12.70;1.00
26907;DHT22;14472;56.880;16.658;2022-10-30T16:34:41;12.70;1.00
26907;DHT22;14472;56.880;16.658;2022-10-30T16:37:15;12.60;1.00
26907;DHT22;14472;56.880;16.658;2022-10-30T16:39:42;12.60;1.00
26907;DHT22;14472;56.880;16.658;2022-10-30T16:42:19;12.50;1.00
26907;DHT22;14472;56.880;16.658;2022-10-30T16:44:45;12.50;1.00
26907;DHT22;14472;56.880;16.658;2022-10-30T16:49:54;12.50;1.00
26907;DHT22;14472;56.880;16.658;2022-10-30T16:52:26;12.40;1.00
26907;DHT22;14472;56.880;16.658;2022-10-30T16:54:58;12.40;1.00
26907;DHT22;14472;56.880;16.658;2022-10-30T16:57:36;12.40;1.00
26907;DHT22;14472;56.880;16.658;2022-10-30T17:00:05;12.30;1.00
26907;DHT22;14472;56.880;16.658;2022-10-30T17:02:33;12.30;1.00
26907;DHT22;14472;56.880;16.658;2022-10-30T17:07:33;12.30;1.00
26907;DHT22;14472;56.880;16.658;2022-10-30T17:10:01;12.20;1.00
26907;DHT22;14472;56.880;16.658;2022-10-30T17:12:28;12.20;1.00
26907;DHT22;14472;56.880;16.658;2022-10-30T17:17:37;12.10;1.00
26907;DHT22;14472;56.880;16.658;2022-10-30T17:20:11;12.20;1.00
26907;DHT22;14472;56.880;16.658;2022-10-30T17:22:38;12.10;1.00
26907;DHT22;14472;56.880;16.658;2022-10-30T17:25:29;12.10;1.00
26907;DHT22;14472;56.880;16.658;2022-10-30T17:27:55;12.10;1.00
26907;DHT22;14472;56.880;16.658;2022-10-30T17:30:39;12.00;1.00
26907;DHT22;14472;56.880;16.658;2022-10-30T17:33:29;12.00;1.00
26907;DHT22;14472;56.880;16.658;2022-10-30T17:35:56;12.00;1.00
26907;DHT22;14472;56.880;16.658;2022-10-30T17:38:22;11.90;1.00
26907;DHT22;14472;56.880;16.658;2022-10-30T17:40:48;11.90;1.00
26907;DHT22;14472;56.880;16.658;2022-10-30T17:43:14;11.90;1.00
26907;DHT22;14472;56.880;16.658;2022-10-30T17:45:41;11.90;1.00
26907;DHT22;14472;56.880;16.658;2022-10-30T17:48:15;11.80;1.00
26907;DHT22;14472;56.880;16.658;2022-10-30T17:50:41;11.80;1.00
26907;DHT22;14472;56.880;16.658;2022-10-30T17:53:19;11.80;1.00
26907;DHT22;14472;56.880;16.658;2022-10-30T17:58:19;11.70;1.00
26907;DHT22;14472;56.880;16.658;2022-10-30T18:00:44;11.70;1.00
26907;DHT22;14472;56.880;16.658;2022-10-30T18:03:11;11.70;1.00
26907;DHT22;14472;56.880;16.658;2022-10-30T18:05:37;11.60;1.00
26907;DHT22;14472;56.880;16.658;2022-10-30T18:08:04;11.60;1.00
26907;DHT22;14472;56.880;16.658;2022-10-30T18:10:30;11.60;1.00
26907;DHT22;14472;56.880;16.658;2022-10-30T18:12:56;11.60;1.00
26907;DHT22;14472;56.880;16.658;2022-10-30T18:17:50;11.50;1.00
26907;DHT22;14472;56.880;16.658;2022-10-30T18:20:16;11.50;1.00
26907;DHT22;14472;56.880;16.658;2022-10-30T18:22:42;11.40;1.00
26907;DHT22;14472;56.880;16.658;2022-10-30T18:25:31;11.40;1.00
26907;DHT22;14472;56.880;16.658;2022-10-30T18:27:57;11.40;1.00
26907;DHT22;14472;56.880;16.658;2022-10-30T18:30:23;11.40;1.00
26907;DHT22;14472;56.880;16.658;2022-10-30T18:32:49;11.40;1.00
26907;DHT22;14472;56.880;16.658;2022-10-30T18:37:41;11.40;1.00